Beti Zeruko Izarra — EA5281 — position and weather

sailwx.info

Track history (hours):
 
Tides and Currents Weather Stations Pressure Air Temp Water Temp Dewpoint Dewpoint Depression Visibility Wind Speed Wind Dir Waves Ship Positions

Beti Zeruko Izarra

Last reported at 2018-Aug-18 03:40 UTC. Time now 2018-Aug-21 01:55 UTC.
Position N 43°37' W 002°55'.

Length 16 m; draft 1.7 m.

Type: Fishing. MMSI: 224025280.

Date/timePositionNaut miles runAvg speedWind from/ knotsBaromVisibWave heightAir tempDewpointWater temp
2018-Aug-18 03:40N 43°37' W 002°55'2 6.8
2018-Aug-18 03:25N 43°36' W 002°54'3 6.8
2018-Aug-18 03:00N 43°34' W 002°51'3 6.9
2018-Aug-18 02:30N 43°31' W 002°48'3 6.9
2018-Aug-18 02:00N 43°28' W 002°45'3 6.6
2018-Aug-18 01:30N 43°26' W 002°43'1 1.4
2018-Aug-18 01:00N 43°25' W 002°43'0 0.0
2018-Aug-18 00:30N 43°25' W 002°43'0 0.0
2018-Aug-17 17:26N 43°25' W 002°43'0 0.0
2018-Aug-17 10:28N 43°25' W 002°43'0 0.0
2018-Aug-17 08:58N 43°25' W 002°43'0 0.0
2018-Aug-17 07:37N 43°25' W 002°43'0 0.0
2018-Aug-17 07:31N 43°25' W 002°43'0 0.4
2018-Aug-17 07:00N 43°25' W 002°43'0 0.3
2018-Aug-17 06:30N 43°25' W 002°43'0 0.0
2018-Aug-17 06:00N 43°25' W 002°43'0 0.0
2018-Aug-17 05:30N 43°25' W 002°43'0 0.0
2018-Aug-17 05:00N 43°25' W 002°43'0 0.0
2018-Aug-17 04:30N 43°25' W 002°43'0 0.1
2018-Aug-17 04:00N 43°25' W 002°43'0 0.0
2018-Aug-17 03:30N 43°25' W 002°43'0 0.0
2018-Aug-17 03:00N 43°25' W 002°43'0 0.0
2018-Aug-16 23:30N 43°25' W 002°43'1 2.1
2018-Aug-16 23:00N 43°26' W 002°43'4 7.6
2018-Aug-16 22:30N 43°29' W 002°46'4 7.8
2018-Aug-16 22:00N 43°32' W 002°51'5 8.3
2018-Aug-16 21:27N 43°35' W 002°55'4 8.2
2018-Aug-16 20:55N 43°38' W 002°59'  
2018-Aug-14 03:53N 43°39' W 005°39'3 7.3
2018-Aug-14 03:29N 43°36' W 005°40'3 6.3
2018-Aug-14 03:00N 43°33' W 005°41'0 0.0
2018-Aug-13 08:26N 43°33' W 005°42'0 0.5
2018-Aug-13 07:56N 43°33' W 005°42'0 0.0
2018-Aug-13 07:28N 43°33' W 005°42'0 0.0
2018-Aug-13 06:57N 43°33' W 005°42'0 0.0
2018-Aug-13 06:30N 43°33' W 005°42'0 0.3
2018-Aug-13 06:00N 43°33' W 005°42'0 0.0
2018-Aug-13 05:24N 43°33' W 005°42'0 0.0
2018-Aug-13 05:00N 43°33' W 005°42'0 0.1
2018-Aug-13 04:24N 43°33' W 005°42'0 0.0
2018-Aug-13 04:00N 43°33' W 005°42'0 0.0
2018-Aug-13 03:28N 43°33' W 005°42'0 0.0
2018-Aug-13 03:00N 43°33' W 005°42'0 0.0
2018-Aug-13 02:30N 43°33' W 005°42'0 0.0
2018-Aug-13 02:00N 43°33' W 005°42'0 0.0
2018-Aug-12 19:59N 43°33' W 005°42'3 5.7
2018-Aug-12 19:28N 43°36' W 005°41'4 8.1
2018-Aug-12 19:00N 43°39' W 005°45'  
2018-Aug-09 16:27N 43°35' W 005°40'2 4.9
2018-Aug-09 16:00N 43°33' W 005°42'0 0.1
2018-Aug-09 14:28N 43°33' W 005°42'0 0.0
2018-Aug-09 07:07N 43°33' W 005°42'0 0.0
2018-Aug-09 06:58N 43°33' W 005°42'0 0.0
2018-Aug-09 00:17N 43°33' W 005°42'  
Track history (hours):
 
Tides and Currents Weather Stations Pressure Air Temp Water Temp Dewpoint Dewpoint Depression Visibility Wind Speed Wind Dir Waves Ship Positions

Beti Zeruko Izarra

Last reported at 2018-Aug-18 03:40 UTC. Time now 2018-Aug-21 01:55 UTC.
Position N 43°37' W 002°55'.

Length 16 m; draft 1.7 m.

Type: Fishing. MMSI: 224025280.

Date/timePositionNaut miles runAvg speedWind from/ knotsBaromVisibWave heightAir tempDewpointWater temp
2018-Aug-18 03:40N 43°37' W 002°55'2 6.8
2018-Aug-18 03:25N 43°36' W 002°54'3 6.8
2018-Aug-18 03:00N 43°34' W 002°51'3 6.9
2018-Aug-18 02:30N 43°31' W 002°48'3 6.9
2018-Aug-18 02:00N 43°28' W 002°45'3 6.6
2018-Aug-18 01:30N 43°26' W 002°43'1 1.4
2018-Aug-18 01:00N 43°25' W 002°43'0 0.0
2018-Aug-18 00:30N 43°25' W 002°43'0 0.0
2018-Aug-17 17:26N 43°25' W 002°43'0 0.0
2018-Aug-17 10:28N 43°25' W 002°43'0 0.0
2018-Aug-17 08:58N 43°25' W 002°43'0 0.0
2018-Aug-17 07:37N 43°25' W 002°43'0 0.0
2018-Aug-17 07:31N 43°25' W 002°43'0 0.4
2018-Aug-17 07:00N 43°25' W 002°43'0 0.3
2018-Aug-17 06:30N 43°25' W 002°43'0 0.0
2018-Aug-17 06:00N 43°25' W 002°43'0 0.0
2018-Aug-17 05:30N 43°25' W 002°43'0 0.0
2018-Aug-17 05:00N 43°25' W 002°43'0 0.0
2018-Aug-17 04:30N 43°25' W 002°43'0 0.1
2018-Aug-17 04:00N 43°25' W 002°43'0 0.0
2018-Aug-17 03:30N 43°25' W 002°43'0 0.0
2018-Aug-17 03:00N 43°25' W 002°43'0 0.0
2018-Aug-16 23:30N 43°25' W 002°43'1 2.1
2018-Aug-16 23:00N 43°26' W 002°43'4 7.6
2018-Aug-16 22:30N 43°29' W 002°46'4 7.8
2018-Aug-16 22:00N 43°32' W 002°51'5 8.3
2018-Aug-16 21:27N 43°35' W 002°55'4 8.2
2018-Aug-16 20:55N 43°38' W 002°59'  
2018-Aug-14 03:53N 43°39' W 005°39'3 7.3
2018-Aug-14 03:29N 43°36' W 005°40'3 6.3
2018-Aug-14 03:00N 43°33' W 005°41'0 0.0
2018-Aug-13 08:26N 43°33' W 005°42'0 0.5
2018-Aug-13 07:56N 43°33' W 005°42'0 0.0
2018-Aug-13 07:28N 43°33' W 005°42'0 0.0
2018-Aug-13 06:57N 43°33' W 005°42'0 0.0
2018-Aug-13 06:30N 43°33' W 005°42'0 0.3
2018-Aug-13 06:00N 43°33' W 005°42'0 0.0
2018-Aug-13 05:24N 43°33' W 005°42'0 0.0
2018-Aug-13 05:00N 43°33' W 005°42'0 0.1
2018-Aug-13 04:24N 43°33' W 005°42'0 0.0
2018-Aug-13 04:00N 43°33' W 005°42'0 0.0
2018-Aug-13 03:28N 43°33' W 005°42'0 0.0
2018-Aug-13 03:00N 43°33' W 005°42'0 0.0
2018-Aug-13 02:30N 43°33' W 005°42'0 0.0
2018-Aug-13 02:00N 43°33' W 005°42'0 0.0
2018-Aug-12 19:59N 43°33' W 005°42'3 5.7
2018-Aug-12 19:28N 43°36' W 005°41'4 8.1
2018-Aug-12 19:00N 43°39' W 005°45'  
2018-Aug-09 16:27N 43°35' W 005°40'2 4.9
2018-Aug-09 16:00N 43°33' W 005°42'0 0.1
2018-Aug-09 14:28N 43°33' W 005°42'0 0.0
2018-Aug-09 07:07N 43°33' W 005°42'0 0.0
2018-Aug-09 06:58N 43°33' W 005°42'0 0.0
2018-Aug-09 00:17N 43°33' W 005°42'  

Dump ship's entire track history